createdAt,value
2018-11-20T00:02:32.078Z,1.40
2018-11-20T00:07:32.746Z,1.40
2018-11-20T00:20:07.204Z,1.30
2018-11-20T00:22:37.253Z,1.30
2018-11-20T00:25:07.837Z,1.30
2018-11-20T00:30:12.937Z,1.30
2018-11-20T00:35:14.307Z,1.30
2018-11-20T00:42:46.084Z,1.30
2018-11-20T00:45:16.002Z,1.30
2018-11-20T00:50:21.536Z,1.30
2018-11-20T01:10:32.868Z,1.20
2018-11-20T01:15:34.261Z,1.20
2018-11-20T01:20:35.010Z,1.20
2018-11-20T01:40:45.818Z,1.20
2018-11-20T01:45:46.965Z,1.20
2018-11-20T01:50:47.978Z,1.10
2018-11-20T02:00:51.793Z,1.00
2018-11-20T02:03:21.950Z,1.10
2018-11-20T02:18:22.460Z,1.10
2018-11-20T02:28:26.263Z,1.00
2018-11-20T02:35:57.900Z,1.00
2018-11-20T02:40:59.126Z,0.90
2018-11-20T02:46:02.208Z,0.90
2018-11-20T02:48:32.151Z,0.90
2018-11-20T02:53:31.166Z,0.90
2018-11-20T03:01:10.091Z,0.90
2018-11-20T03:06:11.086Z,0.90
2018-11-20T03:08:41.287Z,0.90
2018-11-20T03:16:13.863Z,0.80
2018-11-20T03:18:44.048Z,0.90
2018-11-20T03:23:48.495Z,0.90
2018-11-20T03:28:46.627Z,0.90
2018-11-20T03:36:18.515Z,0.80
2018-11-20T03:43:50.171Z,0.80
2018-11-20T03:49:29.726Z,0.80
2018-11-20T03:52:20.107Z,0.80
2018-11-20T03:57:20.981Z,0.80
2018-11-20T04:02:21.655Z,0.70
2018-11-20T04:09:54.200Z,0.80
2018-11-20T04:14:55.526Z,0.70
2018-11-20T04:19:56.194Z,0.80
2018-11-20T04:24:57.077Z,0.70
2018-11-20T04:29:58.681Z,0.70
2018-11-20T04:34:59.510Z,0.70
2018-11-20T04:40:02.172Z,0.70
2018-11-20T04:47:45.731Z,0.80
2018-11-20T04:50:15.663Z,0.70
2018-11-20T04:55:16.272Z,0.70
2018-11-20T05:05:25.868Z,0.80
2018-11-20T05:10:27.005Z,0.70
2018-11-20T05:12:57.467Z,0.70
2018-11-20T05:20:32.535Z,0.70
2018-11-20T05:23:02.919Z,0.70
2018-11-20T05:28:02.322Z,0.70
2018-11-20T05:35:30.445Z,0.70
2018-11-20T05:40:29.222Z,0.70
2018-11-20T05:45:26.582Z,0.70
2018-11-20T05:52:51.903Z,0.70
2018-11-20T05:57:49.038Z,0.70
2018-11-20T06:07:45.493Z,0.80
2018-11-20T06:17:45.042Z,0.70
2018-11-20T06:25:12.409Z,0.70
2018-11-20T06:30:09.884Z,0.70
2018-11-20T06:40:05.522Z,0.50
2018-11-20T06:47:36.667Z,0.60
2018-11-20T07:00:02.585Z,0.60
2018-11-20T07:05:01.228Z,0.70
2018-11-20T07:10:00.023Z,0.80
2018-11-20T07:12:30.494Z,1.00
2018-11-20T07:17:29.132Z,1.00
2018-11-20T07:22:27.921Z,1.00
2018-11-20T07:27:25.294Z,1.10
2018-11-20T07:32:22.999Z,1.20
2018-11-20T07:39:49.113Z,1.10
2018-11-20T07:47:16.755Z,1.30
2018-11-20T07:54:47.603Z,1.40
2018-11-20T08:02:13.901Z,1.50
2018-11-20T08:04:42.224Z,1.50
2018-11-20T08:12:10.520Z,1.60
2018-11-20T08:17:07.674Z,1.70
2018-11-20T08:24:32.021Z,1.70
2018-11-20T08:24:34.482Z,1.80
2018-11-20T08:29:33.878Z,1.90
2018-11-20T08:34:28.940Z,2.00
2018-11-20T08:36:58.798Z,2.00
2018-11-20T08:44:26.355Z,2.30
2018-11-20T08:51:53.816Z,2.60
2018-11-20T09:04:15.631Z,3.20
2018-11-20T09:14:09.015Z,3.60
2018-11-20T09:19:09.183Z,3.80
2018-11-20T09:26:35.097Z,3.60
2018-11-20T09:39:12.739Z,4.20
2018-11-20T09:51:35.930Z,4.50
2018-11-20T09:56:36.393Z,4.90
2018-11-20T10:21:23.319Z,5.30
2018-11-20T10:33:54.591Z,4.90
2018-11-20T10:48:47.207Z,5.00
2018-11-20T10:53:46.208Z,4.60
2018-11-20T10:56:15.907Z,4.50
2018-11-20T11:03:42.323Z,4.60
2018-11-20T11:08:41.534Z,4.90
2018-11-20T11:11:11.462Z,4.90
2018-11-20T11:18:40.976Z,4.70
2018-11-20T11:28:35.510Z,4.90
2018-11-20T11:31:05.790Z,4.90
2018-11-20T11:38:31.792Z,4.80
2018-11-20T11:43:31.263Z,4.90
2018-11-20T11:55:56.191Z,4.80
2018-11-20T12:06:22.743Z,5.00
2018-11-20T12:13:50.869Z,5.00
2018-11-20T12:16:20.718Z,5.10
2018-11-20T12:23:48.350Z,5.30
2018-11-20T12:26:19.394Z,5.30
2018-11-20T12:31:19.964Z,5.50
2018-11-20T12:33:48.654Z,5.60
2018-11-20T12:38:47.656Z,5.60
2018-11-20T12:44:50.170Z,5.60
2018-11-20T12:47:43.879Z,5.50
2018-11-20T12:50:37.197Z,5.50
2018-11-20T12:53:31.777Z,5.40
2018-11-20T12:56:16.817Z,5.40
2018-11-20T12:59:04.506Z,5.40
2018-11-20T13:01:55.073Z,5.00
2018-11-20T13:04:40.383Z,5.10
2018-11-20T13:07:30.171Z,5.10
2018-11-20T13:10:20.932Z,5.30
2018-11-20T13:13:19.709Z,5.50
2018-11-20T13:16:10.170Z,5.80
2018-11-20T13:18:58.008Z,5.80
2018-11-20T13:21:53.882Z,5.60
2018-11-20T13:24:44.467Z,5.60
2018-11-20T13:27:38.040Z,5.40
2018-11-20T13:30:36.647Z,5.40
2018-11-20T13:33:25.691Z,5.60
2018-11-20T13:36:11.521Z,5.40
2018-11-20T13:38:52.078Z,5.10
2018-11-20T13:41:51.963Z,5.00
2018-11-20T13:44:29.652Z,5.20
2018-11-20T13:47:29.316Z,5.00
2018-11-20T13:50:19.224Z,4.80
2018-11-20T13:53:25.104Z,4.90
2018-11-20T13:56:04.356Z,4.50
2018-11-20T13:59:10.701Z,4.40
2018-11-20T14:02:07.688Z,4.20
2018-11-20T14:05:07.455Z,4.10
2018-11-20T14:07:55.376Z,4.20
2018-11-20T14:10:40.717Z,4.20
2018-11-20T14:13:37.516Z,4.30
2018-11-20T14:16:49.738Z,4.30
2018-11-20T14:19:46.420Z,4.20
2018-11-20T14:22:49.291Z,4.10
2018-11-20T14:25:45.227Z,3.80
2018-11-20T14:28:31.660Z,3.80
2018-11-20T14:31:28.259Z,3.80
2018-11-20T14:34:06.626Z,3.90
2018-11-20T14:37:15.853Z,3.90
2018-11-20T14:40:05.534Z,3.90
2018-11-20T14:42:42.952Z,4.00
2018-11-20T14:45:29.332Z,4.00
2018-11-20T14:48:22.717Z,4.10
2018-11-20T14:51:16.342Z,4.10
2018-11-20T14:53:56.659Z,3.90
2018-11-20T14:56:31.164Z,3.80
2018-11-20T14:59:18.602Z,3.70
2018-11-20T15:02:02.642Z,3.50
2018-11-20T15:04:49.532Z,3.20
2018-11-20T15:07:50.882Z,2.80
2018-11-20T15:10:38.431Z,2.50
2018-11-20T15:13:24.650Z,2.10
2018-11-20T15:16:22.644Z,1.90
2018-11-20T15:19:08.398Z,1.60
2018-11-20T15:22:01.813Z,1.40
2018-11-20T15:24:49.636Z,1.10
2018-11-20T15:28:05.187Z,1.00
2018-11-20T15:30:56.109Z,1.00
2018-11-20T15:33:43.959Z,0.80
2018-11-20T15:36:31.077Z,0.50
2018-11-20T15:39:12.768Z,0.40
2018-11-20T15:42:09.466Z,0.30
2018-11-20T15:44:59.963Z,0.20
2018-11-20T15:47:57.095Z,0.10
2018-11-20T15:50:52.751Z,0.00
2018-11-20T15:53:43.979Z,-0.20
2018-11-20T15:56:43.766Z,-0.40
2018-11-20T16:02:59.926Z,-0.70
2018-11-20T16:05:47.729Z,-0.80
2018-11-20T16:08:41.663Z,-0.90
2018-11-20T16:11:38.859Z,-1.00
2018-11-20T16:14:29.272Z,-1.00
2018-11-20T16:17:17.297Z,-1.00
2018-11-20T16:19:58.597Z,-1.10
2018-11-20T16:22:45.661Z,-1.20
2018-11-20T16:25:39.575Z,-1.30
2018-11-20T16:28:30.519Z,-1.30
2018-11-20T16:31:33.801Z,-1.40
2018-11-20T16:34:20.220Z,-1.50
2018-11-20T16:37:11.391Z,-1.60
2018-11-20T16:40:00.655Z,-1.60
2018-11-20T16:42:47.270Z,-1.70
2018-11-20T16:45:42.835Z,-1.70
2018-11-20T16:48:39.298Z,-1.70
2018-11-20T16:51:27.115Z,-1.50
2018-11-20T16:54:15.216Z,-1.00
2018-11-20T16:57:01.815Z,-0.80
2018-11-20T16:59:58.897Z,-0.40
2018-11-20T17:03:25.561Z,-0.20
2018-11-20T17:06:19.538Z,-0.10
2018-11-20T17:09:06.304Z,0.00
2018-11-20T17:12:05.204Z,0.00
2018-11-20T17:14:51.569Z,0.10
2018-11-20T17:17:45.397Z,0.10
2018-11-20T17:20:38.946Z,0.00
2018-11-20T17:23:29.832Z,-0.10
2018-11-20T17:26:29.330Z,0.00
2018-11-20T17:29:23.843Z,-0.10
2018-11-20T17:32:30.139Z,-0.40
2018-11-20T17:39:15.666Z,-0.70
2018-11-20T17:42:21.381Z,-0.80
2018-11-20T17:45:04.449Z,-0.90
2018-11-20T17:47:48.022Z,-1.10
2018-11-20T17:50:38.854Z,-1.30
2018-11-20T17:53:23.764Z,-1.40
2018-11-20T17:56:29.878Z,-1.50
2018-11-20T17:59:16.571Z,-1.60
2018-11-20T18:02:04.631Z,-1.70
2018-11-20T18:04:52.458Z,-1.90
2018-11-20T18:07:56.086Z,-2.00
2018-11-20T18:10:42.617Z,-2.10
2018-11-20T18:13:18.772Z,-2.20
2018-11-20T18:16:05.197Z,-2.30
2018-11-20T18:18:44.832Z,-2.20
2018-11-20T18:21:30.866Z,-2.20
2018-11-20T18:24:23.291Z,-2.20
2018-11-20T18:27:18.994Z,-2.10
2018-11-20T18:30:04.710Z,-2.20
2018-11-20T18:32:58.444Z,-2.20
2018-11-20T18:35:49.161Z,-2.20
2018-11-20T18:38:35.780Z,-2.30
2018-11-20T18:41:35.966Z,-2.30
2018-11-20T18:44:23.956Z,-2.40
2018-11-20T18:47:14.163Z,-2.40
2018-11-20T18:50:10.860Z,-2.40
2018-11-20T18:53:00.417Z,-2.40
2018-11-20T18:55:47.079Z,-2.50
2018-11-20T18:58:34.990Z,-2.60
2018-11-20T19:01:21.245Z,-2.60
2018-11-20T19:04:03.148Z,-2.60
2018-11-20T19:06:49.628Z,-2.70
2018-11-20T19:09:36.339Z,-2.70
2018-11-20T19:12:23.059Z,-2.70
2018-11-20T19:15:10.674Z,-2.70
2018-11-20T19:18:01.642Z,-2.60
2018-11-20T19:20:51.193Z,-2.50
2018-11-20T19:23:54.669Z,-2.50
2018-11-20T19:26:42.286Z,-2.40
2018-11-20T19:29:28.555Z,-2.50
2018-11-20T19:32:14.177Z,-2.40
2018-11-20T19:35:02.013Z,-2.20
2018-11-20T19:38:04.726Z,-2.10
2018-11-20T19:40:51.390Z,-2.00
2018-11-20T19:43:57.190Z,-2.00
2018-11-20T19:46:45.037Z,-2.00
2018-11-20T19:49:27.199Z,-2.00
2018-11-20T19:52:09.912Z,-2.00
2018-11-20T19:55:09.782Z,-2.10
2018-11-20T19:58:05.862Z,-2.20
2018-11-20T20:00:55.126Z,-2.30
2018-11-20T20:03:47.588Z,-2.30
2018-11-20T20:06:34.107Z,-2.50
2018-11-20T20:09:36.887Z,-2.50
2018-11-20T20:12:41.313Z,-2.50
2018-11-20T20:15:27.186Z,-2.60
2018-11-20T20:18:04.968Z,-2.60
2018-11-20T20:21:10.768Z,-2.60
2018-11-20T20:23:58.621Z,-2.60
2018-11-20T20:26:46.484Z,-2.60
2018-11-20T20:29:33.302Z,-2.60
2018-11-20T20:32:30.156Z,-2.70
2018-11-20T20:35:16.660Z,-2.80
2018-11-20T20:38:16.414Z,-2.80
2018-11-20T20:41:02.892Z,-2.90
2018-11-20T20:43:53.796Z,-2.90
2018-11-20T20:46:44.129Z,-3.00
2018-11-20T20:49:25.162Z,-3.00
2018-11-20T20:52:14.507Z,-3.00
2018-11-20T20:55:14.369Z,-3.00
2018-11-20T20:58:19.414Z,-3.10
2018-11-20T21:01:19.349Z,-3.10
2018-11-20T21:04:07.724Z,-3.20
2018-11-20T21:07:01.424Z,-3.20
2018-11-20T21:09:58.126Z,-3.20
2018-11-20T21:12:55.097Z,-3.30
2018-11-20T21:15:49.240Z,-3.30
2018-11-20T21:18:38.554Z,-3.30
2018-11-20T21:21:31.253Z,-3.20
2018-11-20T21:24:16.382Z,-3.20
2018-11-20T21:27:08.928Z,-3.10
2018-11-20T21:29:55.189Z,-3.20
2018-11-20T21:32:42.978Z,-3.20
2018-11-20T21:35:46.806Z,-3.20
2018-11-20T21:38:26.183Z,-3.10
2018-11-20T21:41:28.939Z,-3.20
2018-11-20T21:44:16.854Z,-3.20
2018-11-20T21:46:54.695Z,-3.30
2018-11-20T21:50:03.293Z,-3.40
2018-11-20T21:53:00.060Z,-3.40
2018-11-20T21:55:50.742Z,-3.40
2018-11-20T21:58:41.637Z,-3.50
2018-11-20T22:01:28.328Z,-3.30
2018-11-20T22:04:19.205Z,-3.10
2018-11-20T22:07:06.328Z,-3.30
2018-11-20T22:10:09.052Z,-3.30
2018-11-20T22:12:56.093Z,-3.30
2018-11-20T22:15:43.830Z,-3.40
2018-11-20T22:18:52.546Z,-3.50
2018-11-20T22:21:36.132Z,-3.50
2018-11-20T22:24:30.180Z,-3.40
2018-11-20T22:27:21.711Z,-3.40
2018-11-20T22:30:17.182Z,-3.20
2018-11-20T22:33:05.135Z,-3.10
2018-11-20T22:36:09.719Z,-3.20
2018-11-20T22:38:56.249Z,-3.20
2018-11-20T22:41:52.864Z,-3.20
2018-11-20T22:44:46.421Z,-3.10
2018-11-20T22:47:40.037Z,-3.20
2018-11-20T22:50:26.707Z,-3.30
2018-11-20T22:53:14.168Z,-3.40
2018-11-20T22:56:02.061Z,-3.40
2018-11-20T22:58:54.023Z,-3.50
2018-11-20T23:01:44.620Z,-3.50
2018-11-20T23:04:31.925Z,-3.60
2018-11-20T23:07:21.523Z,-3.60
2018-11-20T23:09:48.612Z,-3.50
2018-11-20T23:12:21.055Z,-3.60
2018-11-20T23:14:49.864Z,-3.60
2018-11-20T23:17:24.767Z,-3.60
2018-11-20T23:19:53.550Z,-3.60
2018-11-20T23:22:22.372Z,-3.70
2018-11-20T23:24:51.453Z,-3.70
2018-11-20T23:27:20.162Z,-3.80
2018-11-20T23:29:48.984Z,-3.70
2018-11-20T23:32:20.810Z,-3.80
2018-11-20T23:34:49.697Z,-3.80
2018-11-20T23:37:18.429Z,-3.70
2018-11-20T23:39:53.887Z,-3.70
2018-11-20T23:42:24.093Z,-3.80
2018-11-20T23:44:51.517Z,-3.80
2018-11-20T23:47:20.342Z,-3.70
2018-11-20T23:49:55.107Z,-3.70
2018-11-20T23:52:23.852Z,-3.70
2018-11-20T23:54:53.614Z,-3.80
2018-11-20T23:57:21.718Z,-3.80
2018-11-20T23:59:50.516Z,-3.70
